createdAt,value
2023-03-30T00:05:05.047Z,3.88
2023-03-30T00:10:34.470Z,3.58
2023-03-30T00:15:56.478Z,3.65
2023-03-30T00:21:23.033Z,4.03
2023-03-30T00:26:51.590Z,11.93
2023-03-30T00:32:20.261Z,8.00
2023-03-30T00:37:49.510Z,6.68
2023-03-30T00:43:19.713Z,2.70
2023-03-30T00:48:42.984Z,3.42
2023-03-30T00:54:12.913Z,5.53
2023-03-30T00:59:42.848Z,4.63
2023-03-30T01:05:09.129Z,4.50
2023-03-30T01:10:37.683Z,3.10
2023-03-30T01:16:07.925Z,3.45
2023-03-30T01:21:55.684Z,3.20
2023-03-30T01:27:39.270Z,2.70
2023-03-30T01:33:24.896Z,4.60
2023-03-30T01:39:20.435Z,7.82
2023-03-30T01:44:45.885Z,7.63
2023-03-30T01:50:10.309Z,8.20
2023-03-30T01:55:34.909Z,4.25
2023-03-30T02:01:00.905Z,2.63
2023-03-30T02:06:26.731Z,4.80
2023-03-30T02:11:51.512Z,5.80
2023-03-30T02:17:17.458Z,6.32
2023-03-30T02:22:40.952Z,4.28
2023-03-30T02:28:03.930Z,13.50
2023-03-30T02:33:39.383Z,8.30
2023-03-30T02:39:14.620Z,3.75
2023-03-30T02:44:45.864Z,4.50
2023-03-30T02:50:19.065Z,11.18
2023-03-30T02:55:46.725Z,4.30
2023-03-30T03:01:33.925Z,7.10
2023-03-30T03:07:03.943Z,3.70
2023-03-30T03:12:26.646Z,5.40
2023-03-30T03:17:50.319Z,3.20
2023-03-30T03:23:15.163Z,5.22
2023-03-30T03:28:43.340Z,14.80
2023-03-30T03:34:06.245Z,4.53
2023-03-30T03:39:47.951Z,4.43
2023-03-30T03:45:12.163Z,4.22
2023-03-30T03:50:55.097Z,12.27
2023-03-30T03:56:18.923Z,4.75
2023-03-30T04:01:47.647Z,8.30
2023-03-30T04:07:11.747Z,5.05
2023-03-30T04:12:41.493Z,3.17
2023-03-30T04:18:34.454Z,3.97
2023-03-30T04:24:22.565Z,5.07
2023-03-30T04:30:11.003Z,3.92
2023-03-30T04:36:19.499Z,5.23
2023-03-30T04:42:14.099Z,7.53
2023-03-30T04:48:01.985Z,11.23
2023-03-30T04:53:53.372Z,4.97
2023-03-30T04:59:41.535Z,18.15
2023-03-30T05:05:30.014Z,9.60
2023-03-30T05:11:30.536Z,4.93
2023-03-30T05:17:00.251Z,9.10
2023-03-30T05:22:53.761Z,8.25
2023-03-30T05:28:38.717Z,13.82
2023-03-30T05:34:25.570Z,6.47
2023-03-30T05:40:09.609Z,7.93
2023-03-30T05:45:46.275Z,7.13
2023-03-30T05:51:34.397Z,4.43
2023-03-30T05:57:24.795Z,7.65
2023-03-30T06:03:19.591Z,6.28
2023-03-30T06:08:48.285Z,6.43
2023-03-30T06:14:21.726Z,10.02
2023-03-30T06:20:12.528Z,24.67
2023-03-30T06:25:40.177Z,7.82
2023-03-30T06:31:10.078Z,6.18
2023-03-30T06:36:44.504Z,5.22
2023-03-30T06:42:17.978Z,24.13
2023-03-30T06:48:06.268Z,9.70
2023-03-30T06:53:38.921Z,14.57
2023-03-30T06:59:03.877Z,6.28
2023-03-30T07:04:29.666Z,3.80
2023-03-30T07:10:19.232Z,12.65
2023-03-30T07:15:44.101Z,11.25
2023-03-30T07:21:13.771Z,12.73
2023-03-30T07:26:43.627Z,12.95
2023-03-30T07:32:08.854Z,16.17
2023-03-30T07:37:40.164Z,15.25
2023-03-30T07:43:09.423Z,18.10
2023-03-30T07:48:38.453Z,8.80
2023-03-30T07:54:02.941Z,32.80
2023-03-30T07:59:43.551Z,32.60
2023-03-30T08:05:22.741Z,10.57
2023-03-30T08:11:04.199Z,13.18
2023-03-30T08:16:34.701Z,19.58
2023-03-30T08:22:02.265Z,22.67
2023-03-30T08:27:33.347Z,21.45
2023-03-30T08:32:59.239Z,19.13
2023-03-30T08:38:22.319Z,16.83
2023-03-30T08:43:54.284Z,12.43
2023-03-30T08:49:19.467Z,9.75
2023-03-30T08:54:43.164Z,9.65
2023-03-30T09:00:23.067Z,28.15
2023-03-30T09:05:54.295Z,9.73
2023-03-30T09:11:23.259Z,15.23
2023-03-30T09:16:51.797Z,13.82
2023-03-30T09:22:16.818Z,13.65
2023-03-30T09:27:43.834Z,6.18
2023-03-30T09:33:15.421Z,11.90
2023-03-30T09:38:42.061Z,11.38
2023-03-30T09:44:06.239Z,12.77
2023-03-30T09:49:33.617Z,14.35
2023-03-30T09:55:04.765Z,7.15
2023-03-30T10:00:32.512Z,6.93
2023-03-30T10:06:03.987Z,19.63
2023-03-30T10:11:36.911Z,10.05
2023-03-30T10:17:00.723Z,11.15
2023-03-30T10:22:25.024Z,7.40
2023-03-30T10:27:56.032Z,7.55
2023-03-30T10:33:24.835Z,7.03
2023-03-30T10:38:54.191Z,15.80
2023-03-30T10:44:21.563Z,13.23
2023-03-30T10:49:53.372Z,8.07
2023-03-30T11:00:48.538Z,5.35
2023-03-30T11:06:20.923Z,17.63
2023-03-30T11:11:51.151Z,14.50
2023-03-30T11:17:21.118Z,11.27
2023-03-30T11:22:52.769Z,12.55
2023-03-30T11:28:19.928Z,14.30
2023-03-30T11:33:52.561Z,11.23
2023-03-30T11:39:31.610Z,14.65
2023-03-30T11:44:59.300Z,17.77
2023-03-30T11:50:28.058Z,7.13
2023-03-30T11:56:00.434Z,8.13
2023-03-30T12:01:27.984Z,21.33
2023-03-30T12:06:59.379Z,9.55
2023-03-30T12:12:26.058Z,16.88
2023-03-30T12:17:53.714Z,36.70
2023-03-30T12:23:22.609Z,10.70
2023-03-30T12:34:14.110Z,8.55
2023-03-30T12:39:44.869Z,5.82
2023-03-30T12:45:21.370Z,10.50
2023-03-30T12:50:52.116Z,12.55
2023-03-30T12:56:29.147Z,6.20
2023-03-30T13:01:56.466Z,8.32
2023-03-30T13:07:24.027Z,13.02
2023-03-30T13:12:57.173Z,8.77
2023-03-30T13:18:26.590Z,15.73
2023-03-30T13:24:04.233Z,10.23
2023-03-30T13:29:30.956Z,9.93
2023-03-30T13:35:06.709Z,14.00
2023-03-30T13:40:46.213Z,12.15
2023-03-30T13:46:25.364Z,20.38
2023-03-30T13:51:49.298Z,14.05
2023-03-30T13:57:19.361Z,21.88
2023-03-30T14:02:45.056Z,15.35
2023-03-30T14:08:10.361Z,7.07
2023-03-30T14:13:38.237Z,4.80
2023-03-30T14:19:12.593Z,8.88
2023-03-30T14:24:40.569Z,10.90
2023-03-30T14:30:09.178Z,20.90
2023-03-30T14:35:42.552Z,14.23
2023-03-30T14:41:14.903Z,18.35
2023-03-30T14:46:46.943Z,11.57
2023-03-30T14:52:16.829Z,8.55
2023-03-30T14:57:46.541Z,12.75
2023-03-30T15:03:19.835Z,4.85
2023-03-30T15:08:48.313Z,13.05
2023-03-30T15:14:16.262Z,10.75
2023-03-30T15:19:41.588Z,14.75
2023-03-30T15:25:10.512Z,8.43
2023-03-30T15:30:39.457Z,16.60
2023-03-30T15:36:11.967Z,13.68
2023-03-30T15:41:47.356Z,6.22
2023-03-30T15:47:17.676Z,5.40
2023-03-30T15:52:45.886Z,7.82
2023-03-30T15:58:14.811Z,12.32
2023-03-30T16:03:42.384Z,14.02
2023-03-30T16:09:08.730Z,8.85
2023-03-30T16:14:38.729Z,7.53
2023-03-30T16:20:14.124Z,16.27
2023-03-30T16:25:45.198Z,15.48
2023-03-30T16:31:18.344Z,22.38
2023-03-30T16:36:42.250Z,17.05
2023-03-30T16:42:05.599Z,8.68
2023-03-30T16:47:32.201Z,4.00
2023-03-30T16:53:01.426Z,13.07
2023-03-30T16:58:29.888Z,12.83
2023-03-30T17:03:56.428Z,10.35
2023-03-30T17:09:21.283Z,6.47
2023-03-30T17:14:50.186Z,6.38
2023-03-30T17:20:22.109Z,3.58
2023-03-30T17:25:51.088Z,6.97
2023-03-30T17:31:16.385Z,6.55
2023-03-30T17:36:46.493Z,8.50
2023-03-30T17:42:11.654Z,8.75
2023-03-30T17:47:38.590Z,17.90
2023-03-30T17:53:03.148Z,17.10
2023-03-30T17:58:34.042Z,12.57
2023-03-30T18:03:59.400Z,10.63
2023-03-30T18:09:29.458Z,13.27
2023-03-30T18:14:52.184Z,7.57
2023-03-30T18:20:17.968Z,15.15
2023-03-30T18:25:43.294Z,17.98
2023-03-30T18:31:12.419Z,14.82
2023-03-30T18:36:38.016Z,10.35
2023-03-30T18:42:02.384Z,15.13
2023-03-30T18:47:31.440Z,15.35
2023-03-30T18:52:54.940Z,14.82
2023-03-30T18:58:26.549Z,17.37
2023-03-30T19:03:54.906Z,13.00
2023-03-30T19:09:36.373Z,17.87
2023-03-30T19:15:28.496Z,23.65
2023-03-30T19:20:56.465Z,26.05
2023-03-30T19:26:23.867Z,39.63
2023-03-30T19:31:54.962Z,63.63
2023-03-30T19:37:25.670Z,45.60
2023-03-30T19:42:53.872Z,34.63
2023-03-30T19:48:23.210Z,33.58
2023-03-30T19:53:53.567Z,30.70
2023-03-30T19:59:22.591Z,22.77
2023-03-30T20:04:50.996Z,19.98
2023-03-30T20:10:22.044Z,11.55
2023-03-30T20:15:46.933Z,13.50
2023-03-30T20:21:11.468Z,9.68
2023-03-30T20:26:41.683Z,8.60
2023-03-30T20:32:05.118Z,10.27
2023-03-30T20:37:28.386Z,5.93
2023-03-30T20:43:02.088Z,4.75
2023-03-30T20:48:33.456Z,6.47
2023-03-30T20:54:01.937Z,7.50
2023-03-30T20:59:32.300Z,6.22
2023-03-30T21:04:56.755Z,6.13
2023-03-30T21:10:25.659Z,4.88
2023-03-30T21:15:59.638Z,6.50
2023-03-30T21:21:24.722Z,4.10
2023-03-30T21:26:52.718Z,4.55
2023-03-30T21:32:22.149Z,4.70
2023-03-30T21:37:50.882Z,3.95
2023-03-30T21:43:14.075Z,4.32
2023-03-30T21:48:39.210Z,3.15
2023-03-30T21:54:07.828Z,8.00
2023-03-30T21:59:36.626Z,7.10
2023-03-30T22:05:06.543Z,5.47
2023-03-30T22:10:35.685Z,2.83
2023-03-30T22:15:59.501Z,4.68
2023-03-30T22:21:25.521Z,2.63
2023-03-30T22:26:50.032Z,5.22
2023-03-30T22:32:14.001Z,4.20
2023-03-30T22:37:44.138Z,3.20
2023-03-30T22:43:06.864Z,10.13
2023-03-30T22:48:36.663Z,5.50
2023-03-30T22:54:06.565Z,8.15
2023-03-30T22:59:31.535Z,8.63
2023-03-30T23:05:01.448Z,4.40
2023-03-30T23:10:26.394Z,3.05
2023-03-30T23:15:50.797Z,4.40
2023-03-30T23:21:15.152Z,5.30
2023-03-30T23:26:43.877Z,6.93
2023-03-30T23:32:13.567Z,2.88
2023-03-30T23:37:38.266Z,6.55
2023-03-30T23:43:06.744Z,4.40
2023-03-30T23:48:32.242Z,2.40
2023-03-30T23:54:06.167Z,3.83
2023-03-30T23:59:30.528Z,3.50
